Warning: Javascript must be enabled to use all the features on this page!


Page Loading - Please Wait...

Click to hideNews Bulletins

Peak Streamflow for the Nation

USGS 03478400 BEAVER CREEK AT BRISTOL, VA

Bristol City, Virginia
Hydrologic Unit Code 06010102
Latitude  36°37'54", Longitude  82°08'02" NAD27
Drainage area 26.9  square miles
Gage datum 1,780.60 feet above NAVD88
Output formats
Table
Graph
Tab-separated file
peakfq (watstore) format
Reselect output format
Water
Year
Date Gage
Height
(feet)
Stream-
flow
(cfs)
1936 1936 12.00Bm  
1940 1940-08 11.50Bd  
1953 1953-03 10.00Bd  
1957 1957-01 7.10Bd  
1958 1958-05-06 6.98 795
1959 1959-03-27 4.76 310
1960 1960-07-01 4.62 280
1961 1961-02-25 5.82 520
1962 1962-02-28 5.41 440
1963 1963-03-12 7.25 850
1964 1964-04-07 4.41 241
1965 1965-04-09 5.76 510
1966 1966-04-13 5.07 3706
1967 1966-10-18 3.91 1666
1968 1967-12-22 4.06 1846
1969 1969-07-18 4.31 2246
1970 1970-04-28 8.11 1,0906
1971 1971-05-07 5.51 4626
1972 1972-09-30 8.03 1,0706
1973 1972-12-10 7.43 5696
1974 1974-01-11 6.63 4426
1975 1975-03-30 7.83 6396
1976 1976-02-13 4.85 2086
1977 1977-04-05 7.61 6836
1978 1977-10-02 9.94 1,6006
1979 1979-01-21 5.37 2786
1980 1980-03-21 4.99 2336
1981 1981-06-06 6.88 5096
1982 1982-08-09 6.12 3766
1983 1982-11-28 4.85 2126
1984 1984-05-07 6.97 5246
1985 1985-02-01 4.89 2166
1986 1985-11-30 4.74 1996
1987 1987-04-15 6.09 3726
1988 1988-02-04 4.41 1626
1989 1989-09-26 4.90 2166
1990 1990-03-17 4.94 2216
1991 1991-05-27 7.39 6256
1992 1992-09-04 5.72 3216
1993 1993-03-23 5.70 3186
1994 1994-02-11 7.36 6186
1995 1995-06-26 3.97 1156
1996 1996-01-27 6.58 4476
1997 1997-03-03 6.31 4046
1998 1998-04-17 8.80 1,0806
1999 1999-08-01 5.42 2816
2000 1999-11-26 4.39 1606
2001 2001-07-29 7.61 6836
2002 2002-03-18 7.45 6416
2003 2003-04-10 6.38 4156
2004 2003-11-19 6.08 3776
2005 2005-05-20 5.06 2336
2006 2006-07-13 5.45 2856
2007 2007-07-20 5.02 2286
2008 2008-06-09 5.31 2666
2009 2009-08-19 7.70 7816
2010 2009-12-09 6.19 3996
2011 2011-02-28 6.03 3636
2012 2012-08-09 7.05 6446
2013 2013-01-16 6.44 4396
2014 2014-09-04 5.27 2196
2015 2015-07-20 7.30 6546
2016 2016-08-16 5.79 3076
2017 2017-05-12 6.01 3556
2018 2018-08-19 6.50 4436
2019 2019-02-23 6.77 5016
2020 2020-04-13 8.61 7316
2021 2021-03-28 7.59 5636
?
  Peak Gage-Height Qualification Codes.
?
  Peak Streamflow Qualification Codes.